Time;durP1;ratioP1;P1;durP2;ratioP2;P2;SDS_P1;SDS_P2;PMS_P1;PMS_P2;Temp;Humidity;BMP_temperature;BMP_pressure;BME280_temperature;BME280_humidity;BME280_pressure;Samples;Min_cycle;Max_cycle;Signal;HPM_P1;HPM_P2
2022/01/12 00:01:36;;;;;;;;;63.67;51.33;;;;;21.44;50.60;102912.59;113015;1242;19154;-67
2022/01/12 00:04:01;;;;;;;;;66.00;50.33;;;;;21.44;50.49;102911.84;113051;1241;21711;-66
2022/01/12 00:06:28;;;;;;;;;58.67;47.33;;;;;21.44;50.46;102915.31;113076;1241;18471;-65
2022/01/12 00:08:54;;;;;;;;;63.33;50.67;;;;;21.43;50.51;102917.58;113049;1242;18675;-65
2022/01/12 00:11:21;;;;;;;;;60.33;49.67;;;;;21.43;50.60;102919.41;113104;1241;19905;-66
2022/01/12 00:13:51;;;;;;;;;65.00;49.33;;;;;21.43;50.54;102920.48;113058;1242;18698;-65
2022/01/12 00:16:16;;;;;;;;;62.00;48.33;;;;;21.44;50.47;102924.08;112888;1241;20590;-64
2022/01/12 00:18:44;;;;;;;;;61.33;48.33;;;;;21.44;50.54;102925.69;113053;1242;19537;-64
2022/01/12 00:21:10;;;;;;;;;65.00;52.00;;;;;21.43;50.31;102926.31;113001;1242;20122;-64
2022/01/12 00:23:38;;;;;;;;;62.00;49.33;;;;;21.43;50.36;102928.29;113044;1241;18540;-67
2022/01/12 00:26:05;;;;;;;;;66.00;50.00;;;;;21.43;50.19;102924.28;113042;1242;22934;-65
2022/01/12 00:34:00;;;;;;;;;54.67;44.00;;;;;21.43;50.16;102930.65;113056;1241;22161;-65
2022/01/12 00:36:26;;;;;;;;;62.00;49.33;;;;;21.43;50.12;102929.95;113048;1241;18727;-65
2022/01/12 00:38:52;;;;;;;;;63.67;49.00;;;;;21.42;50.20;102930.02;113044;1242;18538;-65
2022/01/12 00:41:18;;;;;;;;;59.33;46.00;;;;;21.42;50.27;102927.63;113010;1242;19342;-65
2022/01/12 00:43:45;;;;;;;;;60.00;49.67;;;;;21.42;50.19;102922.98;113004;1241;21036;-66
2022/01/12 00:46:11;;;;;;;;;60.50;48.50;;;;;21.42;50.14;102924.27;112908;1241;20208;-67
2022/01/12 00:48:37;;;;;;;;;59.00;47.33;;;;;21.42;50.05;102928.43;112961;1240;19155;-68
2022/01/12 00:51:03;;;;;;;;;64.00;49.67;;;;;21.41;49.93;102933.01;113013;1242;20904;-66
2022/01/12 00:53:29;;;;;;;;;56.67;46.33;;;;;21.40;50.01;102930.39;113036;1242;19206;-66
2022/01/12 00:55:55;;;;;;;;;63.33;49.00;;;;;21.41;50.12;102933.80;113041;1241;19164;-67
2022/01/12 00:58:21;;;;;;;;;64.33;50.00;;;;;21.40;50.10;102933.64;113086;1242;18546;-65
2022/01/12 01:00:47;;;;;;;;;60.00;46.00;;;;;21.40;49.93;102936.38;113098;1242;18743;-65
2022/01/12 01:03:13;;;;;;;;;60.00;48.50;;;;;21.40;49.96;102931.67;113055;1241;20042;-65
2022/01/12 01:05:39;;;;;;;;;63.00;48.67;;;;;21.39;49.98;102930.61;113099;1242;18985;-64
2022/01/12 01:08:05;;;;;;;;;62.33;49.33;;;;;21.40;49.93;102923.69;112964;1242;18705;-66
2022/01/12 01:10:44;;;;;;;;;65.67;52.00;;;;;21.39;49.83;102923.76;113013;1242;20754;-67
2022/01/12 01:13:10;;;;;;;;;59.33;48.00;;;;;21.39;49.82;102924.08;112950;1242;18661;-64
2022/01/12 01:15:55;;;;;;;;;61.33;50.00;;;;;21.39;49.70;102924.42;112971;1242;18656;-65
2022/01/12 01:26:34;;;;;;;;;62.00;51.33;;;;;21.40;49.52;102925.45;113104;1241;21017;-65
2022/01/12 01:29:00;;;;;;;;;62.67;50.33;;;;;21.40;49.45;102925.12;113095;1241;18694;-65
2022/01/12 01:31:30;;;;;;;;;65.33;50.00;;;;;21.39;49.50;102923.89;113123;1242;19395;-67
2022/01/12 01:33:56;;;;;;;;;64.67;52.00;;;;;21.40;49.59;102923.65;113121;1242;19603;-65
2022/01/12 01:36:26;;;;;;;;;57.33;47.67;;;;;21.40;49.39;102928.77;112971;1242;21150;-64
2022/01/12 01:38:52;;;;;;;;;63.67;51.33;;;;;21.40;49.27;102922.19;113044;1242;20318;-65
2022/01/12 01:41:18;;;;;;;;;64.33;50.00;;;;;21.39;49.40;102921.88;113069;1241;21151;-65
2022/01/12 01:44:07;;;;;;;;;60.00;48.67;;;;;21.40;49.28;102921.51;113030;1242;19056;-65
2022/01/12 01:54:44;;;;;;;;;64.00;50.00;;;;;21.39;49.22;102931.52;113001;1241;22643;-64
2022/01/12 01:57:09;;;;;;;;;69.33;50.00;;;;;21.39;49.20;102929.91;113055;1241;19319;-63
2022/01/12 01:59:35;;;;;;;;;63.67;48.33;;;;;21.39;49.35;102933.39;113073;1242;18565;-66
2022/01/12 02:02:01;;;;;;;;;66.67;51.00;;;;;21.37;49.26;102930.80;113055;1241;19285;-65
2022/01/12 02:04:27;;;;;;;;;62.50;48.50;;;;;21.36;49.29;102926.01;113021;1242;19829;-66
2022/01/12 02:06:54;;;;;;;;;68.00;49.50;;;;;21.37;49.32;102927.58;113029;1241;20607;-66
2022/01/12 02:09:22;;;;;;;;;67.67;52.00;;;;;21.36;49.10;102924.90;113120;1241;19142;-67
2022/01/12 02:11:58;;;;;;;;;61.00;50.00;;;;;21.35;49.25;102925.48;113097;1242;21134;-64
2022/01/12 02:14:28;;;;;;;;;64.00;51.00;;;;;21.35;49.25;102931.16;113052;1241;19337;-66
2022/01/12 02:17:04;;;;;;;;;62.00;48.33;;;;;21.34;49.15;102929.20;113077;1242;19790;-67
2022/01/12 02:20:08;;;;;;;;;67.00;52.00;;;;;21.35;48.97;102934.22;113016;1241;19609;-65
2022/01/12 02:36:27;;;;;;;;;60.33;49.00;;;;;21.34;49.10;102909.27;113055;1241;21216;-65
2022/01/12 02:41:38;;;;;;;;;68.33;52.33;;;;;21.33;48.82;102914.73;113003;1242;19253;-67
2022/01/12 02:55:07;;;;;;;;;64.67;51.67;;;;;21.30;48.85;102887.02;112465;1245;20652;-65
2022/01/12 02:57:33;;;;;;;;;69.67;51.67;;;;;21.33;48.70;102891.11;112418;1245;19187;-65
2022/01/12 03:00:07;;;;;;;;;67.67;50.00;;;;;21.33;48.65;102896.89;112442;1245;19152;-66
2022/01/12 03:02:36;;;;;;;;;65.00;52.67;;;;;21.32;48.82;102900.81;112136;1248;20548;-66
2022/01/12 03:05:22;;;;;;;;;69.67;54.33;;;;;21.33;48.60;102902.38;112197;1248;18703;-67
2022/01/12 03:07:48;;;;;;;;;63.33;49.67;;;;;21.33;48.67;102903.69;112238;1248;19416;-66
2022/01/12 03:10:14;;;;;;;;;63.00;48.33;;;;;21.34;48.44;102905.22;112229;1247;23278;-65
2022/01/12 03:12:40;;;;;;;;;66.67;53.00;;;;;21.33;48.53;102904.75;112309;1247;19358;-65
2022/01/12 03:15:05;;;;;;;;;67.00;52.67;;;;;21.33;48.33;102912.77;112221;1248;19274;-65
2022/01/12 03:17:31;;;;;;;;;66.00;50.00;;;;;21.32;48.30;102906.08;112216;1248;19829;-65
2022/01/12 03:19:57;;;;;;;;;66.67;52.00;;;;;21.32;48.36;102904.64;112190;1247;19143;-66
2022/01/12 03:22:23;;;;;;;;;66.33;53.00;;;;;21.32;48.41;102907.20;112203;1248;19592;-65
2022/01/12 03:24:49;;;;;;;;;65.00;52.00;;;;;21.32;48.46;102906.85;112196;1247;21226;-67
2022/01/12 03:27:16;;;;;;;;;66.33;53.33;;;;;21.32;48.47;102911.35;112231;1248;18513;-64
2022/01/12 03:29:43;;;;;;;;;67.50;52.00;;;;;21.32;48.44;102916.80;112297;1247;22200;-67
2022/01/12 03:32:11;;;;;;;;;67.67;52.00;;;;;21.32;48.46;102916.87;112665;1242;18869;-66
2022/01/12 03:34:39;;;;;;;;;68.00;52.00;;;;;21.32;48.35;102916.11;113084;1242;21942;-65
2022/01/12 03:37:18;;;;;;;;;68.67;53.00;;;;;21.32;48.30;102920.09;113081;1242;21400;-66
2022/01/12 03:39:44;;;;;;;;;63.00;52.00;;;;;21.32;48.29;102918.13;113105;1242;22844;-66
2022/01/12 03:42:10;;;;;;;;;63.00;52.33;;;;;21.32;48.29;102915.77;113087;1242;18586;-66
2022/01/12 03:44:35;;;;;;;;;74.67;54.33;;;;;21.31;48.19;102907.84;113100;1242;19160;-65
2022/01/12 03:47:01;;;;;;;;;65.33;52.33;;;;;21.30;48.10;102899.05;112993;1242;19102;-64
2022/01/12 03:49:27;;;;;;;;;66.00;50.00;;;;;21.30;48.18;102899.75;113036;1242;18546;-65
2022/01/12 03:51:53;;;;;;;;;67.33;53.33;;;;;21.29;48.13;102901.97;113075;1241;20641;-65
2022/01/12 03:54:19;;;;;;;;;68.00;51.67;;;;;21.29;48.35;102900.56;113027;1241;21642;-65
2022/01/12 03:56:45;;;;;;;;;65.67;54.00;;;;;21.29;48.15;102899.83;112988;1242;18358;-66
2022/01/12 03:59:11;;;;;;;;;62.00;50.00;;;;;21.30;48.03;102904.15;113012;1242;19206;-66
2022/01/12 04:01:37;;;;;;;;;71.67;54.00;;;;;21.28;48.32;102898.23;113044;1241;23656;-67
2022/01/12 04:04:05;;;;;;;;;68.33;52.67;;;;;21.29;48.22;102896.59;113037;1242;18752;-65
2022/01/12 04:09:15;;;;;;;;;70.00;51.67;;;;;21.29;47.96;102880.75;113000;1242;22874;-65
2022/01/12 04:11:41;;;;;;;;;67.33;52.00;;;;;21.28;48.03;102872.56;113021;1242;18588;-65
2022/01/12 04:14:07;;;;;;;;;61.67;49.67;;;;;21.29;48.13;102871.98;113003;1242;19247;-65
2022/01/12 04:16:33;;;;;;;;;66.67;52.00;;;;;21.29;48.03;102871.27;113021;1242;20110;-64
2022/01/12 04:18:58;;;;;;;;;62.67;50.00;;;;;21.29;48.00;102871.66;113090;1241;18533;-65
2022/01/12 04:21:28;;;;;;;;;63.67;50.00;;;;;21.28;47.79;102873.19;113052;1242;19626;-65
2022/01/12 04:23:54;;;;;;;;;64.67;52.00;;;;;21.30;47.88;102879.44;113057;1241;21840;-65
2022/01/12 04:26:20;;;;;;;;;71.00;56.00;;;;;21.29;47.90;102874.00;113055;1242;19102;-64
2022/01/12 04:28:45;;;;;;;;;72.00;54.00;;;;;21.29;48.01;102875.26;113029;1242;19434;-64
2022/01/12 04:31:11;;;;;;;;;64.67;51.00;;;;;21.29;47.95;102874.91;113071;1241;18572;-65
2022/01/12 04:33:37;;;;;;;;;67.00;52.00;;;;;21.29;47.98;102877.66;113016;1242;18531;-64
2022/01/12 04:36:03;;;;;;;;;63.67;49.33;;;;;21.29;47.92;102882.20;113042;1242;21289;-64
2022/01/12 04:38:30;;;;;;;;;66.00;50.33;;;;;21.28;47.95;102880.40;113026;1242;18442;-64
2022/01/12 04:40:56;;;;;;;;;68.00;53.00;;;;;21.28;47.84;102880.81;113026;1242;19435;-65
2022/01/12 04:43:22;;;;;;;;;75.33;55.00;;;;;21.29;47.63;102884.77;113020;1242;22259;-65
2022/01/12 04:46:09;;;;;;;;;71.00;53.00;;;;;21.29;47.63;102896.73;113019;1242;18591;-65
2022/01/12 04:48:37;;;;;;;;;68.33;51.00;;;;;21.28;47.76;102899.13;113015;1242;19793;-64
2022/01/12 04:51:03;;;;;;;;;67.50;53.00;;;;;21.29;47.67;102894.73;113017;1241;21673;-64
2022/01/12 04:53:30;;;;;;;;;62.00;50.00;;;;;21.29;47.58;102891.99;112979;1242;18897;-65
2022/01/12 04:55:56;;;;;;;;;63.00;47.67;;;;;21.28;47.63;102889.86;113007;1242;19100;-65
2022/01/12 04:58:22;;;;;;;;;64.00;52.00;;;;;21.28;47.68;102889.13;113055;1241;19237;-65
2022/01/12 05:00:48;;;;;;;;;64.67;52.00;;;;;21.28;47.58;102886.80;113090;1242;20073;-64
2022/01/12 05:08:52;;;;;;;;;70.67;52.67;;;;;21.27;47.51;102894.34;112987;1242;18619;-64
2022/01/12 05:14:03;;;;;;;;;68.00;53.00;;;;;21.27;47.34;102892.52;113009;1242;22054;-66
2022/01/12 05:16:29;;;;;;;;;64.33;51.33;;;;;21.26;47.44;102895.84;112978;1242;19198;-64
2022/01/12 05:18:55;;;;;;;;;64.67;52.33;;;;;21.26;47.56;102890.38;113008;1242;19706;-65
2022/01/12 05:21:21;;;;;;;;;68.67;53.67;;;;;21.28;47.41;102890.83;113006;1242;19206;-65
2022/01/12 05:23:46;;;;;;;;;66.33;50.00;;;;;21.26;47.23;102882.61;113060;1241;18714;-64
2022/01/12 05:26:12;;;;;;;;;66.67;52.33;;;;;21.27;47.47;102882.36;113066;1242;22198;-65
2022/01/12 05:28:38;;;;;;;;;63.67;51.00;;;;;21.25;47.56;102878.34;113085;1241;19883;-65
2022/01/12 05:31:04;;;;;;;;;62.67;50.00;;;;;21.27;47.23;102884.70;113137;1242;18382;-65
2022/01/12 05:33:30;;;;;;;;;64.33;52.00;;;;;21.28;47.40;102881.90;113139;1242;18494;-67
2022/01/12 05:35:56;;;;;;;;;69.67;51.00;;;;;21.27;47.29;102885.95;113094;1242;22362;-66
2022/01/12 05:38:22;;;;;;;;;65.67;51.33;;;;;21.26;47.43;102883.83;113046;1242;21066;-65
2022/01/12 05:40:48;;;;;;;;;71.00;53.00;;;;;21.25;47.30;102876.50;113041;1242;19146;-65
2022/01/12 05:43:14;;;;;;;;;65.67;52.33;;;;;21.26;47.25;102879.36;113062;1242;19991;-65
2022/01/12 05:45:44;;;;;;;;;60.00;50.00;;;;;21.25;47.16;102879.55;113053;1242;19203;-65
2022/01/12 05:50:54;;;;;;;;;69.33;50.67;;;;;21.25;47.32;102890.13;113025;1242;21711;-66
2022/01/12 05:53:20;;;;;;;;;67.00;52.00;;;;;21.25;47.03;102892.48;113067;1242;18935;-66
2022/01/12 05:55:46;;;;;;;;;65.00;51.67;;;;;21.25;47.15;102888.17;113063;1242;18707;-64
2022/01/12 05:58:11;;;;;;;;;70.33;53.67;;;;;21.25;47.31;102889.77;113066;1242;19100;-65
2022/01/12 06:00:37;;;;;;;;;65.33;51.00;;;;;21.25;47.18;102893.83;113010;1242;21910;-65
2022/01/12 06:03:03;;;;;;;;;65.00;52.33;;;;;21.25;47.24;102889.58;113042;1242;18972;-66
2022/01/12 06:05:29;;;;;;;;;61.67;49.33;;;;;21.25;47.12;102887.96;112997;1242;21039;-67
2022/01/12 06:07:55;;;;;;;;;63.67;50.00;;;;;21.24;47.11;102885.29;112990;1242;18411;-65
2022/01/12 06:10:22;;;;;;;;;64.50;48.00;;;;;21.25;47.17;102880.52;112977;1242;22301;-64
2022/01/12 06:12:48;;;;;;;;;69.50;52.00;;;;;21.24;47.08;102885.66;113041;1242;20522;-65
2022/01/12 06:15:14;;;;;;;;;63.00;46.67;;;;;21.25;46.97;102884.32;113019;1241;22150;-65
2022/01/12 06:17:40;;;;;;;;;64.67;51.67;;;;;21.25;47.11;102885.96;113055;1242;20465;-65
2022/01/12 06:20:06;;;;;;;;;67.00;50.00;;;;;21.25;47.12;102890.33;113047;1241;19314;-64
2022/01/12 06:22:32;;;;;;;;;65.00;52.00;;;;;21.26;46.98;102895.90;112977;1241;20530;-65
2022/01/12 06:24:59;;;;;;;;;65.67;51.33;;;;;21.26;47.07;102893.34;113090;1242;19872;-65
2022/01/12 06:27:28;;;;;;;;;66.33;48.00;;;;;21.26;47.10;102897.91;112969;1242;20748;-66
2022/01/12 06:30:04;;;;;;;;;64.67;50.00;;;;;21.25;47.17;102899.77;112934;1242;20611;-64
2022/01/12 06:32:30;;;;;;;;;66.67;51.67;;;;;21.27;47.04;102899.02;113005;1242;19814;-66
2022/01/12 06:34:56;;;;;;;;;60.00;48.00;;;;;21.27;46.95;102895.23;112909;1241;19163;-66
2022/01/12 06:37:22;;;;;;;;;70.00;52.33;;;;;21.30;47.01;102898.61;112924;1242;18367;-65
2022/01/12 06:39:47;;;;;;;;;58.00;47.67;;;;;21.34;47.14;102896.81;113058;1241;20172;-66
2022/01/12 06:42:13;;;;;;;;;69.33;54.00;;;;;21.39;47.30;102900.85;112992;1242;24119;-65
2022/01/12 06:44:39;;;;;;;;;63.00;50.00;;;;;21.39;47.83;102895.39;112980;1241;20008;-65
2022/01/12 06:47:05;;;;;;;;;59.67;48.67;;;;;21.38;47.96;102890.18;113041;1240;19203;-67
2022/01/12 06:49:31;;;;;;;;;64.00;49.67;;;;;21.40;47.89;102885.66;113068;1242;19243;-66
2022/01/12 06:51:59;;;;;;;;;66.00;48.00;;;;;21.40;47.94;102884.00;112937;1242;18476;-65
2022/01/12 06:54:25;;;;;;;;;60.00;48.00;;;;;21.43;47.86;102890.24;112960;1242;20827;-64
2022/01/12 06:56:51;;;;;;;;;67.67;52.00;;;;;21.46;47.97;102883.63;113027;1242;23881;-62
2022/01/12 06:59:17;;;;;;;;;62.67;49.67;;;;;21.49;47.87;102875.96;112997;1242;18482;-64
2022/01/12 07:01:44;;;;;;;;;60.00;45.33;;;;;21.49;48.13;102874.48;113041;1241;18610;-67
2022/01/12 07:04:10;;;;;;;;;62.33;47.33;;;;;21.50;48.23;102865.71;112989;1242;21025;-63
2022/01/12 07:06:35;;;;;;;;;62.33;48.00;;;;;21.49;48.26;102864.85;112959;1242;18365;-67
2022/01/12 07:09:01;;;;;;;;;60.00;48.00;;;;;21.48;48.58;102873.16;112955;1242;22968;-66
2022/01/12 07:11:27;;;;;;;;;67.00;47.33;;;;;21.41;48.62;102880.09;112959;1241;19219;-64
2022/01/12 07:13:53;;;;;;;;;59.33;46.33;;;;;21.33;48.38;102885.68;112907;1241;18442;-64
2022/01/12 07:16:19;;;;;;;;;62.67;48.00;;;;;21.33;48.54;102877.08;112913;1242;18826;-64
2022/01/12 07:18:45;;;;;;;;;60.00;47.67;;;;;21.34;48.49;102879.98;112884;1242;19909;-64
2022/01/12 07:21:11;;;;;;;;;58.67;42.33;;;;;21.41;48.70;102873.21;112960;1242;19904;-64
2022/01/12 07:23:37;;;;;;;;;59.67;48.00;;;;;21.46;49.07;102865.52;113008;1241;20865;-65
2022/01/12 07:26:03;;;;;;;;;46.33;42.33;;;;;21.46;49.21;102867.06;113077;1241;19132;-64
2022/01/12 07:28:29;;;;;;;;;59.67;45.33;;;;;21.48;49.14;102870.81;113583;1241;18570;-64
2022/01/12 07:30:54;;;;;;;;;52.67;42.33;;;;;21.48;49.08;102882.62;113029;1242;18555;-63
2022/01/12 07:33:22;;;;;;;;;57.33;41.00;;;;;21.47;49.17;102877.38;113034;1241;19944;-64
2022/01/12 07:35:48;;;;;;;;;49.33;43.67;;;;;21.47;49.20;102871.03;113080;1241;19540;-65
2022/01/12 07:38:14;;;;;;;;;58.33;42.00;;;;;21.48;49.18;102874.43;113117;1242;21769;-64
2022/01/12 07:40:40;;;;;;;;;45.00;40.33;;;;;21.46;49.18;102873.30;113056;1241;19218;-63
2022/01/12 07:43:06;;;;;;;;;55.33;42.00;;;;;21.43;49.33;102868.80;113023;1242;19265;-64
2022/01/12 07:45:32;;;;;;;;;52.33;43.00;;;;;21.43;49.24;102860.29;113060;1241;18853;-65
2022/01/12 07:47:57;;;;;;;;;49.50;40.50;;;;;21.46;49.40;102865.07;113084;1242;19166;-65
2022/01/12 07:50:23;;;;;;;;;50.67;40.33;;;;;21.47;49.62;102876.66;112947;1242;19995;-64
2022/01/12 07:52:53;;;;;;;;;40.00;36.00;;;;;21.46;49.73;102886.38;113001;1240;18704;-66
2022/01/12 07:55:19;;;;;;;;;54.50;44.00;;;;;21.46;49.84;102893.45;113053;1241;21187;-66
2022/01/12 07:57:45;;;;;;;;;318.25;232.25;;;;;21.43;49.91;102881.00;112996;1242;20591;-67
2022/01/12 08:00:11;;;;;;;;;233.25;173.25;;;;;21.39;49.93;102878.65;113007;1241;18886;-68
2022/01/12 08:02:37;;;;;;;;;162.00;125.50;;;;;21.43;49.82;102876.11;113018;1241;19219;-67
2022/01/12 08:05:03;;;;;;;;;106.33;86.00;;;;;21.46;49.38;102872.77;113063;1241;19534;-69
2022/01/12 08:07:30;;;;;;;;;140.00;110.00;;;;;21.48;49.70;102879.48;113004;1242;19922;-66
2022/01/12 08:09:56;;;;;;;;;144.00;116.50;;;;;21.51;49.87;102886.55;113035;1242;21042;-66
2022/01/12 08:12:22;;;;;;;;;138.67;108.67;;;;;21.54;49.79;102880.60;113039;1241;21753;-66
2022/01/12 08:14:48;;;;;;;;;143.67;112.00;;;;;21.57;49.97;102876.48;113065;1242;19887;-67
2022/01/12 08:17:14;;;;;;;;;111.00;86.67;;;;;21.58;50.99;102876.06;113026;1242;21839;-65
2022/01/12 08:19:40;;;;;;;;;124.00;97.67;;;;;21.61;50.92;102863.45;113027;1241;19018;-66
2022/01/12 08:22:06;;;;;;;;;121.67;89.00;;;;;21.62;53.12;102864.27;113040;1242;21113;-66
2022/01/12 08:24:31;;;;;;;;;111.00;86.00;;;;;21.59;53.56;102854.67;113062;1241;19234;-66
2022/01/12 08:26:57;;;;;;;;;105.00;81.00;;;;;21.59;53.95;102846.73;113049;1242;18793;-67
2022/01/12 08:29:26;;;;;;;;;100.33;75.00;;;;;21.58;53.90;102849.74;113044;1242;22877;-67
2022/01/12 08:31:52;;;;;;;;;102.00;74.33;;;;;21.56;54.11;102862.23;113021;1242;19684;-66
2022/01/12 08:34:18;;;;;;;;;96.67;68.00;;;;;21.58;53.55;102864.41;112996;1242;19619;-67
2022/01/12 08:36:44;;;;;;;;;97.00;68.00;;;;;21.58;53.30;102860.62;113047;1242;18552;-67
2022/01/12 08:39:10;;;;;;;;;89.67;66.33;;;;;21.58;53.28;102857.66;112979;1241;20749;-66
2022/01/12 08:41:35;;;;;;;;;88.00;61.33;;;;;21.59;52.68;102857.07;113000;1242;18376;-66
2022/01/12 08:44:01;;;;;;;;;85.33;62.33;;;;;21.56;52.57;102859.02;113030;1241;18470;-67
2022/01/12 08:46:27;;;;;;;;;84.00;60.00;;;;;21.58;52.40;102860.64;113015;1242;20431;-66
2022/01/12 08:48:53;;;;;;;;;84.33;59.00;;;;;21.60;52.57;102860.29;113080;1241;18943;-66
2022/01/12 08:51:19;;;;;;;;;82.33;58.00;;;;;21.57;52.67;102858.52;113020;1241;23138;-66
2022/01/12 08:53:45;;;;;;;;;78.67;57.00;;;;;21.57;52.43;102860.46;113013;1242;19450;-66
2022/01/12 08:56:11;;;;;;;;;74.33;54.67;;;;;21.59;52.39;102858.90;112953;1242;20503;-66
2022/01/12 08:58:37;;;;;;;;;74.00;55.50;;;;;21.57;52.49;102842.00;112994;1242;19302;-67
2022/01/12 09:01:03;;;;;;;;;73.67;54.33;;;;;21.55;52.66;102850.88;113032;1242;19424;-68
2022/01/12 09:03:29;;;;;;;;;73.50;54.00;;;;;21.55;52.38;102866.73;113040;1241;18582;-68
2022/01/12 09:05:55;;;;;;;;;66.00;52.00;;;;;21.52;52.43;102867.14;113073;1242;18508;-68
2022/01/12 09:08:21;;;;;;;;;64.67;49.67;;;;;21.49;52.22;102856.84;113095;1241;19325;-66
2022/01/12 09:10:47;;;;;;;;;68.33;51.00;;;;;21.53;51.83;102853.23;113013;1241;19073;-66
2022/01/12 09:13:13;;;;;;;;;68.67;50.33;;;;;21.56;51.75;102853.55;113045;1242;19449;-66
2022/01/12 09:15:39;;;;;;;;;63.67;50.67;;;;;21.57;51.94;102843.20;113027;1242;20587;-67
2022/01/12 09:18:04;;;;;;;;;61.67;48.00;;;;;21.58;52.07;102843.49;113044;1241;18453;-66
2022/01/12 09:20:30;;;;;;;;;54.67;46.00;;;;;21.57;52.11;102845.20;113004;1242;18961;-65
2022/01/12 09:22:56;;;;;;;;;63.33;46.33;;;;;21.58;51.97;102853.73;113001;1242;19178;-66
2022/01/12 09:25:22;;;;;;;;;61.00;49.67;;;;;21.57;52.11;102845.45;113070;1242;18787;-67
2022/01/12 09:27:48;;;;;;;;;60.33;46.67;;;;;21.57;51.92;102843.06;113074;1242;23531;-68
2022/01/12 09:30:14;;;;;;;;;63.33;46.33;;;;;21.55;52.13;102838.70;113011;1242;19239;-66
2022/01/12 09:32:40;;;;;;;;;68.00;46.00;;;;;21.55;51.90;102849.79;112987;1241;18380;-65
2022/01/12 09:35:05;;;;;;;;;54.00;43.00;;;;;21.55;51.96;102847.77;113001;1242;23004;-66
2022/01/12 09:37:31;;;;;;;;;56.67;43.00;;;;;21.56;51.97;102848.07;113010;1241;19135;-66
2022/01/12 09:39:57;;;;;;;;;58.67;43.00;;;;;21.54;51.73;102847.48;113050;1242;18428;-66
2022/01/12 09:42:23;;;;;;;;;53.00;42.00;;;;;21.54;51.84;102842.98;113009;1241;22342;-68
2022/01/12 09:44:49;;;;;;;;;57.67;43.67;;;;;21.53;51.70;102834.48;112997;1242;21045;-67
2022/01/12 09:47:15;;;;;;;;;48.50;41.50;;;;;21.55;51.76;102830.48;112993;1242;20845;-68
2022/01/12 09:49:41;;;;;;;;;50.00;42.00;;;;;21.57;51.44;102833.39;113007;1241;18946;-68
2022/01/12 09:52:07;;;;;;;;;47.00;40.00;;;;;21.58;51.55;102836.77;113014;1242;19403;-67
2022/01/12 09:54:33;;;;;;;;;52.00;42.00;;;;;21.57;51.51;102829.75;112974;1242;18742;-66
2022/01/12 09:56:59;;;;;;;;;41.50;37.00;;;;;21.57;51.15;102819.76;113015;1240;18543;-65
2022/01/12 09:59:24;;;;;;;;;42.00;36.33;;;;;21.58;51.09;102812.39;112839;1240;20893;-68
2022/01/12 10:01:52;;;;;;;;;43.00;33.00;;;;;21.56;51.15;102804.17;112950;1241;19219;-65
2022/01/12 10:04:18;;;;;;;;;44.33;37.00;;;;;21.59;51.13;102811.58;112981;1241;20887;-66
2022/01/12 10:06:45;;;;;;;;;48.67;40.33;;;;;21.63;51.12;102814.72;112974;1242;22485;-66
2022/01/12 10:09:12;;;;;;;;;48.00;42.00;;;;;21.61;50.49;102808.88;113036;1241;18747;-67
2022/01/12 10:11:38;;;;;;;;;45.33;39.00;;;;;21.62;50.40;102807.92;113100;1242;19508;-65
2022/01/12 10:14:06;;;;;;;;;44.00;39.67;;;;;21.64;50.70;102807.58;113010;1241;19159;-68
2022/01/12 10:16:32;;;;;;;;;45.33;34.00;;;;;21.62;50.52;102807.49;112981;1241;19057;-66
2022/01/12 10:18:58;;;;;;;;;45.50;38.50;;;;;21.62;50.62;102806.27;113020;1241;18693;-68
2022/01/12 10:21:24;;;;;;;;;43.00;37.00;;;;;21.63;50.52;102802.89;112995;1242;19594;-68
2022/01/12 10:23:49;;;;;;;;;46.33;39.33;;;;;21.61;50.53;102802.92;113004;1242;21113;-67
2022/01/12 10:26:15;;;;;;;;;43.50;37.00;;;;;21.62;50.49;102805.34;112944;1242;19152;-66
2022/01/12 10:28:41;;;;;;;;;49.00;36.50;;;;;21.63;50.53;102802.73;112934;1241;19444;-67
2022/01/12 10:31:07;;;;;;;;;37.00;34.00;;;;;21.61;50.51;102799.79;113061;1241;19830;-67
2022/01/12 10:33:33;;;;;;;;;43.50;37.00;;;;;21.61;50.73;102798.87;113060;1241;18708;-69
2022/01/12 10:35:59;;;;;;;;;47.67;37.33;;;;;21.61;50.40;102793.94;113076;1242;20000;-68
2022/01/12 10:38:25;;;;;;;;;38.00;33.00;;;;;21.58;50.52;102790.56;113108;1241;18606;-68
2022/01/12 10:40:51;;;;;;;;;35.00;33.00;;;;;21.56;50.49;102785.10;113033;1242;18551;-68
2022/01/12 10:43:17;;;;;;;;;36.00;32.00;;;;;21.53;50.44;102780.98;113008;1242;22461;-69
2022/01/12 10:45:43;;;;;;;;;34.50;32.00;;;;;21.51;50.65;102771.69;113111;1242;23557;-69
2022/01/12 10:48:09;;;;;;;;;41.00;37.00;;;;;21.50;50.52;102764.89;113013;1242;19170;-69
2022/01/12 10:50:34;;;;;;;;;41.50;36.50;;;;;21.48;50.48;102755.04;112968;1242;22713;-69
2022/01/12 10:53:00;;;;;;;;;40.50;30.00;;;;;21.48;50.31;102755.47;112899;1242;18468;-68
2022/01/12 10:55:26;;;;;;;;;40.50;33.00;;;;;21.48;50.12;102756.75;113073;1241;21284;-68
2022/01/12 10:57:56;;;;;;;;;33.33;31.33;;;;;21.48;50.09;102759.03;113066;1242;19585;-70
2022/01/12 11:00:24;;;;;;;;;39.67;34.00;;;;;21.47;49.96;102749.86;113086;1241;18746;-68
2022/01/12 11:02:50;;;;;;;;;37.67;29.67;;;;;21.48;49.88;102744.92;113041;1241;18842;-69
2022/01/12 11:05:16;;;;;;;;;39.00;33.00;;;;;21.47;49.83;102737.52;113062;1241;19341;-68
2022/01/12 11:07:42;;;;;;;;;32.50;31.00;;;;;21.49;49.70;102737.71;112973;1241;22605;-67
2022/01/12 11:10:08;;;;;;;;;37.50;35.00;;;;;21.49;49.79;102737.38;112970;1241;18712;-69
2022/01/12 11:12:35;;;;;;;;;42.00;37.00;;;;;21.49;49.88;102736.84;112954;1242;19907;-67
2022/01/12 11:15:01;;;;;;;;;34.00;30.33;;;;;21.49;49.97;102732.63;113006;1241;20837;-69
2022/01/12 11:17:27;;;;;;;;;34.50;31.00;;;;;21.50;50.14;102727.20;112995;1241;18506;-69
2022/01/12 11:19:53;;;;;;;;;45.50;38.00;;;;;21.51;50.09;102726.23;112979;1241;23066;-68
2022/01/12 11:22:19;;;;;;;;;35.00;30.00;;;;;21.50;50.28;102717.05;112982;1242;19029;-68
2022/01/12 11:24:44;;;;;;;;;36.00;30.00;;;;;21.54;50.71;102718.91;113015;1242;21892;-69
2022/01/12 11:27:10;;;;;;;;;33.50;32.00;;;;;21.56;51.35;102717.77;112926;1241;19194;-67
2022/01/12 11:29:38;;;;;;;;;46.00;38.00;;;;;21.56;51.90;102723.02;112696;1242;626343;-67
2022/01/12 11:32:04;;;;;;;;;37.00;33.00;;;;;21.57;52.09;102721.67;113006;1242;20601;-69
2022/01/12 11:34:30;;;;;;;;;42.00;33.33;;;;;21.57;52.49;102716.41;112999;1242;21739;-70
2022/01/12 11:36:57;;;;;;;;;37.00;31.33;;;;;21.57;52.84;102715.15;113099;1242;19807;-69
2022/01/12 11:39:23;;;;;;;;;34.00;31.00;;;;;21.55;52.93;102718.63;113050;1240;18471;-70
2022/01/12 11:41:48;;;;;;;;;39.00;35.00;;;;;21.59;52.92;102723.54;113052;1241;22263;-70
2022/01/12 11:44:15;;;;;;;;;34.50;31.50;;;;;21.65;52.98;102713.95;113109;1242;18351;-69
2022/01/12 11:46:41;;;;;;;;;34.00;32.00;;;;;21.68;52.73;102717.48;112983;1241;19688;-70
2022/01/12 11:49:07;;;;;;;;;34.00;31.00;;;;;21.69;52.51;102716.16;112991;1242;19217;-69
2022/01/12 11:51:33;;;;;;;;;32.00;26.50;;;;;21.67;52.44;102713.64;112986;1242;22313;-66
2022/01/12 11:53:59;;;;;;;;;34.00;33.00;;;;;21.65;52.74;102715.59;112956;1242;18568;-66
2022/01/12 11:56:25;;;;;;;;;40.00;30.50;;;;;21.64;52.59;102712.20;112972;1242;21660;-69
2022/01/12 11:58:51;;;;;;;;;38.00;37.50;;;;;21.65;52.58;102715.44;113023;1241;18919;-69
2022/01/12 12:01:16;;;;;;;;;35.00;29.00;;;;;21.63;52.41;102715.53;113115;1241;20309;-67
2022/01/12 12:03:42;;;;;;;;;29.50;28.50;;;;;21.64;52.42;102713.33;113064;1242;19385;-68